sensor_id;sensor_type;location;lat;lon;timestamp;pressure;altitude;pressure_sealevel;temperature
71081;BMP180;58740;50.672;18.690;2022-07-23T00:00:33;99047.40;;;22.90
71081;BMP180;58740;50.672;18.690;2022-07-23T00:03:06;99052.60;;;22.90
71081;BMP180;58740;50.672;18.690;2022-07-23T00:05:35;99056.60;;;22.90
71081;BMP180;58740;50.672;18.690;2022-07-23T00:08:06;99054.40;;;22.90
71081;BMP180;58740;50.672;18.690;2022-07-23T00:10:41;99053.20;;;22.82
71081;BMP180;58740;50.672;18.690;2022-07-23T00:13:09;99054.60;;;22.80
71081;BMP180;58740;50.672;18.690;2022-07-23T00:15:37;99049.40;;;22.80
71081;BMP180;58740;50.672;18.690;2022-07-23T00:18:04;99053.80;;;22.72
71081;BMP180;58740;50.672;18.690;2022-07-23T00:20:32;99049.60;;;22.70
71081;BMP180;58740;50.672;18.690;2022-07-23T00:23:00;99053.00;;;22.70
71081;BMP180;58740;50.672;18.690;2022-07-23T00:25:28;99051.00;;;22.62
71081;BMP180;58740;50.672;18.690;2022-07-23T00:27:59;99054.60;;;22.66
71081;BMP180;58740;50.672;18.690;2022-07-23T00:30:28;99048.20;;;22.60
71081;BMP180;58740;50.672;18.690;2022-07-23T00:33:03;99049.00;;;22.60
71081;BMP180;58740;50.672;18.690;2022-07-23T00:35:35;99048.00;;;22.60
71081;BMP180;58740;50.672;18.690;2022-07-23T00:38:04;99050.60;;;22.60
71081;BMP180;58740;50.672;18.690;2022-07-23T00:40:33;99042.60;;;22.50
71081;BMP180;58740;50.672;18.690;2022-07-23T00:43:01;99042.00;;;22.50
71081;BMP180;58740;50.672;18.690;2022-07-23T00:45:30;99047.20;;;22.40
71081;BMP180;58740;50.672;18.690;2022-07-23T00:47:59;99045.60;;;22.40
71081;BMP180;58740;50.672;18.690;2022-07-23T00:50:27;99044.40;;;22.40
71081;BMP180;58740;50.672;18.690;2022-07-23T00:52:55;99043.80;;;22.40
71081;BMP180;58740;50.672;18.690;2022-07-23T00:55:23;99044.00;;;22.40
71081;BMP180;58740;50.672;18.690;2022-07-23T00:57:53;99039.80;;;22.40
71081;BMP180;58740;50.672;18.690;2022-07-23T01:00:21;99045.20;;;22.34
71081;BMP180;58740;50.672;18.690;2022-07-23T01:02:50;99042.00;;;22.30
71081;BMP180;58740;50.672;18.690;2022-07-23T01:05:17;99040.20;;;22.30
71081;BMP180;58740;50.672;18.690;2022-07-23T01:07:51;99038.60;;;22.30
71081;BMP180;58740;50.672;18.690;2022-07-23T01:10:24;99031.20;;;22.22
71081;BMP180;58740;50.672;18.690;2022-07-23T01:13:07;99028.60;;;22.26
71081;BMP180;58740;50.672;18.690;2022-07-23T01:15:38;99028.40;;;22.26
71081;BMP180;58740;50.672;18.690;2022-07-23T01:18:08;99026.20;;;22.26
71081;BMP180;58740;50.672;18.690;2022-07-23T01:20:36;99025.60;;;22.30
71081;BMP180;58740;50.672;18.690;2022-07-23T01:23:04;99022.60;;;22.30
71081;BMP180;58740;50.672;18.690;2022-07-23T01:25:32;99027.40;;;22.30
71081;BMP180;58740;50.672;18.690;2022-07-23T01:28:00;99027.60;;;22.22
71081;BMP180;58740;50.672;18.690;2022-07-23T01:30:28;99032.80;;;22.20
71081;BMP180;58740;50.672;18.690;2022-07-23T01:32:56;99029.40;;;22.20
71081;BMP180;58740;50.672;18.690;2022-07-23T01:35:23;99027.00;;;22.20
71081;BMP180;58740;50.672;18.690;2022-07-23T01:37:51;99031.60;;;22.20
71081;BMP180;58740;50.672;18.690;2022-07-23T01:40:20;99032.20;;;22.12
71081;BMP180;58740;50.672;18.690;2022-07-23T01:42:49;99037.00;;;22.10
71081;BMP180;58740;50.672;18.690;2022-07-23T01:45:17;99036.80;;;22.10
71081;BMP180;58740;50.672;18.690;2022-07-23T01:47:46;99033.80;;;22.00
71081;BMP180;58740;50.672;18.690;2022-07-23T01:50:14;99036.20;;;22.00
71081;BMP180;58740;50.672;18.690;2022-07-23T01:52:42;99036.20;;;22.00
71081;BMP180;58740;50.672;18.690;2022-07-23T01:55:09;99037.80;;;21.90
71081;BMP180;58740;50.672;18.690;2022-07-23T01:57:46;99040.40;;;21.90
71081;BMP180;58740;50.672;18.690;2022-07-23T02:00:14;99037.00;;;21.90
71081;BMP180;58740;50.672;18.690;2022-07-23T02:02:42;99037.00;;;21.80
71081;BMP180;58740;50.672;18.690;2022-07-23T02:05:10;99035.20;;;21.80
71081;BMP180;58740;50.672;18.690;2022-07-23T02:07:38;99035.60;;;21.80
71081;BMP180;58740;50.672;18.690;2022-07-23T02:10:07;99039.20;;;21.80
71081;BMP180;58740;50.672;18.690;2022-07-23T02:12:35;99038.60;;;21.80
71081;BMP180;58740;50.672;18.690;2022-07-23T02:15:03;99040.60;;;21.78
71081;BMP180;58740;50.672;18.690;2022-07-23T02:17:32;99044.00;;;21.80
71081;BMP180;58740;50.672;18.690;2022-07-23T02:19:59;99044.60;;;21.70
71081;BMP180;58740;50.672;18.690;2022-07-23T02:22:27;99039.60;;;21.70
71081;BMP180;58740;50.672;18.690;2022-07-23T02:24:55;99041.00;;;21.70
71081;BMP180;58740;50.672;18.690;2022-07-23T02:27:23;99044.60;;;21.66
71081;BMP180;58740;50.672;18.690;2022-07-23T02:29:50;99038.80;;;21.62
71081;BMP180;58740;50.672;18.690;2022-07-23T02:32:18;99035.60;;;21.60
71081;BMP180;58740;50.672;18.690;2022-07-23T02:34:45;99027.60;;;21.60
71081;BMP180;58740;50.672;18.690;2022-07-23T02:37:13;99026.60;;;21.60
71081;BMP180;58740;50.672;18.690;2022-07-23T02:39:41;99022.80;;;21.60
71081;BMP180;58740;50.672;18.690;2022-07-23T02:42:09;99025.60;;;21.60
71081;BMP180;58740;50.672;18.690;2022-07-23T02:44:37;99029.00;;;21.60
71081;BMP180;58740;50.672;18.690;2022-07-23T02:47:05;99031.60;;;21.60
71081;BMP180;58740;50.672;18.690;2022-07-23T02:49:33;99022.20;;;21.60
71081;BMP180;58740;50.672;18.690;2022-07-23T02:52:02;99018.40;;;21.60
71081;BMP180;58740;50.672;18.690;2022-07-23T02:54:30;99019.20;;;21.60
71081;BMP180;58740;50.672;18.690;2022-07-23T02:56:57;99014.40;;;21.60
71081;BMP180;58740;50.672;18.690;2022-07-23T02:59:25;99022.80;;;21.50
71081;BMP180;58740;50.672;18.690;2022-07-23T03:01:53;99024.00;;;21.50
71081;BMP180;58740;50.672;18.690;2022-07-23T03:04:20;99023.80;;;21.42
71081;BMP180;58740;50.672;18.690;2022-07-23T03:06:48;99018.40;;;21.40
71081;BMP180;58740;50.672;18.690;2022-07-23T03:09:16;99018.00;;;21.40
71081;BMP180;58740;50.672;18.690;2022-07-23T03:11:43;99018.80;;;21.40
71081;BMP180;58740;50.672;18.690;2022-07-23T03:14:11;99013.40;;;21.40
71081;BMP180;58740;50.672;18.690;2022-07-23T03:16:40;99010.20;;;21.40
71081;BMP180;58740;50.672;18.690;2022-07-23T03:19:08;99008.40;;;21.40
71081;BMP180;58740;50.672;18.690;2022-07-23T03:21:36;99010.40;;;21.40
71081;BMP180;58740;50.672;18.690;2022-07-23T03:24:08;99013.80;;;21.40
71081;BMP180;58740;50.672;18.690;2022-07-23T03:26:37;99012.60;;;21.40
71081;BMP180;58740;50.672;18.690;2022-07-23T03:29:05;99012.00;;;21.40
71081;BMP180;58740;50.672;18.690;2022-07-23T03:31:32;99007.40;;;21.40
71081;BMP180;58740;50.672;18.690;2022-07-23T03:34:00;99005.40;;;21.40
71081;BMP180;58740;50.672;18.690;2022-07-23T03:36:28;99001.20;;;21.40
71081;BMP180;58740;50.672;18.690;2022-07-23T03:38:56;98997.60;;;21.40
71081;BMP180;58740;50.672;18.690;2022-07-23T03:41:27;98999.80;;;21.40
71081;BMP180;58740;50.672;18.690;2022-07-23T03:43:56;99000.20;;;21.50
71081;BMP180;58740;50.672;18.690;2022-07-23T03:46:24;98995.00;;;21.50
71081;BMP180;58740;50.672;18.690;2022-07-23T03:48:52;98994.20;;;21.48
71081;BMP180;58740;50.672;18.690;2022-07-23T03:51:25;99000.20;;;21.50
71081;BMP180;58740;50.672;18.690;2022-07-23T03:53:53;99009.00;;;21.50
71081;BMP180;58740;50.672;18.690;2022-07-23T03:56:22;99017.20;;;21.50
71081;BMP180;58740;50.672;18.690;2022-07-23T03:58:50;99020.20;;;21.60
71081;BMP180;58740;50.672;18.690;2022-07-23T04:01:17;99016.40;;;21.60
71081;BMP180;58740;50.672;18.690;2022-07-23T04:03:45;99020.20;;;21.70
71081;BMP180;58740;50.672;18.690;2022-07-23T04:06:14;99022.80;;;21.80
71081;BMP180;58740;50.672;18.690;2022-07-23T04:08:41;99018.40;;;21.80
71081;BMP180;58740;50.672;18.690;2022-07-23T04:11:09;99012.40;;;21.88
71081;BMP180;58740;50.672;18.690;2022-07-23T04:13:37;99013.00;;;21.90
71081;BMP180;58740;50.672;18.690;2022-07-23T04:16:05;99011.60;;;22.00
71081;BMP180;58740;50.672;18.690;2022-07-23T04:18:34;99009.20;;;22.10
71081;BMP180;58740;50.672;18.690;2022-07-23T04:21:01;99004.20;;;22.20
71081;BMP180;58740;50.672;18.690;2022-07-23T04:23:29;99000.40;;;22.20
71081;BMP180;58740;50.672;18.690;2022-07-23T04:25:57;98995.80;;;22.30
71081;BMP180;58740;50.672;18.690;2022-07-23T04:28:25;98996.20;;;22.40
71081;BMP180;58740;50.672;18.690;2022-07-23T04:30:52;98999.40;;;22.50
71081;BMP180;58740;50.672;18.690;2022-07-23T04:33:23;99000.40;;;22.50
71081;BMP180;58740;50.672;18.690;2022-07-23T04:35:51;98997.00;;;22.60
71081;BMP180;58740;50.672;18.690;2022-07-23T04:38:20;98995.00;;;22.60
71081;BMP180;58740;50.672;18.690;2022-07-23T04:40:47;98999.40;;;22.64
71081;BMP180;58740;50.672;18.690;2022-07-23T04:43:15;99004.20;;;22.70
71081;BMP180;58740;50.672;18.690;2022-07-23T04:45:42;99000.20;;;22.80
71081;BMP180;58740;50.672;18.690;2022-07-23T04:48:10;99006.40;;;22.80
71081;BMP180;58740;50.672;18.690;2022-07-23T04:50:39;99010.00;;;22.86
71081;BMP180;58740;50.672;18.690;2022-07-23T04:53:06;99010.80;;;22.90
71081;BMP180;58740;50.672;18.690;2022-07-23T04:55:34;99003.80;;;22.90
71081;BMP180;58740;50.672;18.690;2022-07-23T04:58:02;99003.60;;;23.00
71081;BMP180;58740;50.672;18.690;2022-07-23T05:00:29;98998.40;;;23.00
71081;BMP180;58740;50.672;18.690;2022-07-23T05:02:57;98995.20;;;23.10
71081;BMP180;58740;50.672;18.690;2022-07-23T05:05:25;98994.40;;;23.20
71081;BMP180;58740;50.672;18.690;2022-07-23T05:07:52;98995.80;;;23.22
71081;BMP180;58740;50.672;18.690;2022-07-23T05:10:20;98995.20;;;23.30
71081;BMP180;58740;50.672;18.690;2022-07-23T05:12:48;98989.60;;;23.40
71081;BMP180;58740;50.672;18.690;2022-07-23T05:15:15;98989.40;;;23.44
71081;BMP180;58740;50.672;18.690;2022-07-23T05:17:43;98990.60;;;23.50
71081;BMP180;58740;50.672;18.690;2022-07-23T05:20:11;98988.00;;;23.50
71081;BMP180;58740;50.672;18.690;2022-07-23T05:22:39;98987.60;;;23.60
71081;BMP180;58740;50.672;18.690;2022-07-23T05:25:07;98986.00;;;23.70
71081;BMP180;58740;50.672;18.690;2022-07-23T05:27:35;98984.00;;;23.74
71081;BMP180;58740;50.672;18.690;2022-07-23T05:30:03;98979.00;;;23.80
71081;BMP180;58740;50.672;18.690;2022-07-23T05:32:32;98982.20;;;23.90
71081;BMP180;58740;50.672;18.690;2022-07-23T05:35:00;98980.80;;;23.90
71081;BMP180;58740;50.672;18.690;2022-07-23T05:37:29;98977.80;;;24.00
71081;BMP180;58740;50.672;18.690;2022-07-23T05:40:02;98974.00;;;24.10
71081;BMP180;58740;50.672;18.690;2022-07-23T05:42:30;98974.20;;;24.16
71081;BMP180;58740;50.672;18.690;2022-07-23T05:44:57;98965.60;;;24.20
71081;BMP180;58740;50.672;18.690;2022-07-23T05:47:25;98964.20;;;24.30
71081;BMP180;58740;50.672;18.690;2022-07-23T05:49:53;98956.40;;;24.40
71081;BMP180;58740;50.672;18.690;2022-07-23T05:52:24;98958.20;;;24.50
71081;BMP180;58740;50.672;18.690;2022-07-23T05:54:51;98951.80;;;24.62
71081;BMP180;58740;50.672;18.690;2022-07-23T05:57:19;98944.40;;;24.70
71081;BMP180;58740;50.672;18.690;2022-07-23T05:59:51;98933.60;;;24.84
71081;BMP180;58740;50.672;18.690;2022-07-23T06:02:19;98932.60;;;24.90
71081;BMP180;58740;50.672;18.690;2022-07-23T06:04:47;98928.00;;;25.00
71081;BMP180;58740;50.672;18.690;2022-07-23T06:07:14;98932.00;;;25.10
71081;BMP180;58740;50.672;18.690;2022-07-23T06:09:42;98936.80;;;25.30
71081;BMP180;58740;50.672;18.690;2022-07-23T06:12:10;98933.60;;;25.40
71081;BMP180;58740;50.672;18.690;2022-07-23T06:14:37;98926.00;;;25.60
71081;BMP180;58740;50.672;18.690;2022-07-23T06:17:05;98926.80;;;25.70
71081;BMP180;58740;50.672;18.690;2022-07-23T06:19:33;98926.20;;;25.90
71081;BMP180;58740;50.672;18.690;2022-07-23T06:22:00;98924.60;;;26.02
71081;BMP180;58740;50.672;18.690;2022-07-23T06:24:28;98919.20;;;26.18
71081;BMP180;58740;50.672;18.690;2022-07-23T06:26:56;98913.20;;;26.30
71081;BMP180;58740;50.672;18.690;2022-07-23T06:29:24;98908.20;;;26.40
71081;BMP180;58740;50.672;18.690;2022-07-23T06:31:51;98912.00;;;26.50
71081;BMP180;58740;50.672;18.690;2022-07-23T06:34:19;98913.40;;;26.70
71081;BMP180;58740;50.672;18.690;2022-07-23T06:36:47;98910.80;;;26.70
71081;BMP180;58740;50.672;18.690;2022-07-23T06:39:15;98907.20;;;26.86
71081;BMP180;58740;50.672;18.690;2022-07-23T06:41:43;98909.60;;;26.90
71081;BMP180;58740;50.672;18.690;2022-07-23T06:44:17;98904.80;;;27.08
71081;BMP180;58740;50.672;18.690;2022-07-23T06:46:46;98905.80;;;27.14
71081;BMP180;58740;50.672;18.690;2022-07-23T06:49:13;98907.00;;;27.20
71081;BMP180;58740;50.672;18.690;2022-07-23T06:51:41;98907.80;;;27.32
71081;BMP180;58740;50.672;18.690;2022-07-23T06:54:09;98903.60;;;27.50
71081;BMP180;58740;50.672;18.690;2022-07-23T06:56:37;98910.00;;;27.60
71081;BMP180;58740;50.672;18.690;2022-07-23T06:59:05;98914.20;;;27.70
71081;BMP180;58740;50.672;18.690;2022-07-23T07:01:33;98911.40;;;27.80
71081;BMP180;58740;50.672;18.690;2022-07-23T07:04:01;98903.00;;;27.90
71081;BMP180;58740;50.672;18.690;2022-07-23T07:06:28;98898.40;;;27.90
71081;BMP180;58740;50.672;18.690;2022-07-23T07:08:56;98901.20;;;28.10
71081;BMP180;58740;50.672;18.690;2022-07-23T07:11:24;98902.60;;;28.18
71081;BMP180;58740;50.672;18.690;2022-07-23T07:13:53;98912.80;;;28.30
71081;BMP180;58740;50.672;18.690;2022-07-23T07:16:20;98912.80;;;28.40
71081;BMP180;58740;50.672;18.690;2022-07-23T07:18:48;98915.60;;;28.40
71081;BMP180;58740;50.672;18.690;2022-07-23T07:21:16;98914.60;;;28.50
71081;BMP180;58740;50.672;18.690;2022-07-23T07:23:44;98920.00;;;28.52
71081;BMP180;58740;50.672;18.690;2022-07-23T07:26:11;98917.60;;;28.62
71081;BMP180;58740;50.672;18.690;2022-07-23T07:28:39;98915.00;;;28.70
71081;BMP180;58740;50.672;18.690;2022-07-23T07:31:07;98913.00;;;28.86
71081;BMP180;58740;50.672;18.690;2022-07-23T07:33:34;98917.80;;;28.98
71081;BMP180;58740;50.672;18.690;2022-07-23T07:36:03;98915.20;;;29.00
71081;BMP180;58740;50.672;18.690;2022-07-23T07:38:31;98913.60;;;29.00
71081;BMP180;58740;50.672;18.690;2022-07-23T07:40:59;98910.00;;;29.00
71081;BMP180;58740;50.672;18.690;2022-07-23T07:43:26;98907.40;;;29.10
71081;BMP180;58740;50.672;18.690;2022-07-23T07:45:54;98905.20;;;29.10
71081;BMP180;58740;50.672;18.690;2022-07-23T07:48:22;98901.20;;;29.20
71081;BMP180;58740;50.672;18.690;2022-07-23T07:50:50;98900.00;;;29.30
71081;BMP180;58740;50.672;18.690;2022-07-23T07:53:18;98900.00;;;29.36
71081;BMP180;58740;50.672;18.690;2022-07-23T07:55:45;98903.20;;;29.40
71081;BMP180;58740;50.672;18.690;2022-07-23T07:58:18;98914.60;;;29.50
71081;BMP180;58740;50.672;18.690;2022-07-23T08:00:46;98913.00;;;29.50
71081;BMP180;58740;50.672;18.690;2022-07-23T08:03:14;98915.80;;;29.60
71081;BMP180;58740;50.672;18.690;2022-07-23T08:05:42;98915.60;;;29.70
71081;BMP180;58740;50.672;18.690;2022-07-23T08:08:10;98908.60;;;29.72
71081;BMP180;58740;50.672;18.690;2022-07-23T08:10:42;98902.80;;;29.70
71081;BMP180;58740;50.672;18.690;2022-07-23T08:13:15;98888.60;;;29.80
71081;BMP180;58740;50.672;18.690;2022-07-23T08:15:44;98884.20;;;29.80
71081;BMP180;58740;50.672;18.690;2022-07-23T08:18:13;98875.00;;;29.80
71081;BMP180;58740;50.672;18.690;2022-07-23T08:20:41;98869.20;;;29.82
71081;BMP180;58740;50.672;18.690;2022-07-23T08:23:09;98871.80;;;29.90
71081;BMP180;58740;50.672;18.690;2022-07-23T08:25:40;98868.80;;;29.90
71081;BMP180;58740;50.672;18.690;2022-07-23T08:28:12;98861.40;;;29.80
71081;BMP180;58740;50.672;18.690;2022-07-23T08:30:43;98860.40;;;29.90
71081;BMP180;58740;50.672;18.690;2022-07-23T08:33:14;98864.20;;;30.00
71081;BMP180;58740;50.672;18.690;2022-07-23T08:36:02;98865.40;;;30.10
71081;BMP180;58740;50.672;18.690;2022-07-23T08:38:32;98861.20;;;30.10
71081;BMP180;58740;50.672;18.690;2022-07-23T08:41:01;98862.20;;;30.20
71081;BMP180;58740;50.672;18.690;2022-07-23T08:43:32;98858.80;;;30.30
71081;BMP180;58740;50.672;18.690;2022-07-23T08:46:03;98853.80;;;30.30
71081;BMP180;58740;50.672;18.690;2022-07-23T08:48:34;98850.00;;;30.30
71081;BMP180;58740;50.672;18.690;2022-07-23T08:51:06;98850.60;;;30.28
71081;BMP180;58740;50.672;18.690;2022-07-23T08:53:35;98856.80;;;30.30
71081;BMP180;58740;50.672;18.690;2022-07-23T08:56:05;98861.00;;;30.20
71081;BMP180;58740;50.672;18.690;2022-07-23T08:58:35;98862.80;;;30.20
71081;BMP180;58740;50.672;18.690;2022-07-23T09:01:03;98868.60;;;30.10
71081;BMP180;58740;50.672;18.690;2022-07-23T09:03:34;98869.20;;;30.20
71081;BMP180;58740;50.672;18.690;2022-07-23T09:06:03;98868.00;;;30.30
71081;BMP180;58740;50.672;18.690;2022-07-23T09:08:42;98864.00;;;30.30
71081;BMP180;58740;50.672;18.690;2022-07-23T09:11:15;98863.80;;;30.34
71081;BMP180;58740;50.672;18.690;2022-07-23T09:13:50;98866.40;;;30.40
71081;BMP180;58740;50.672;18.690;2022-07-23T09:16:29;98864.00;;;30.40
71081;BMP180;58740;50.672;18.690;2022-07-23T09:19:02;98870.60;;;30.50
71081;BMP180;58740;50.672;18.690;2022-07-23T09:21:37;98872.00;;;30.60
71081;BMP180;58740;50.672;18.690;2022-07-23T09:24:13;98878.60;;;30.68
71081;BMP180;58740;50.672;18.690;2022-07-23T09:26:47;98871.80;;;30.70
71081;BMP180;58740;50.672;18.690;2022-07-23T09:29:23;98871.40;;;30.60
71081;BMP180;58740;50.672;18.690;2022-07-23T09:32:00;98869.00;;;30.60
71081;BMP180;58740;50.672;18.690;2022-07-23T09:34:35;98875.60;;;30.54
71081;BMP180;58740;50.672;18.690;2022-07-23T09:37:18;98880.60;;;30.50
71081;BMP180;58740;50.672;18.690;2022-07-23T09:39:48;98886.80;;;30.50
71081;BMP180;58740;50.672;18.690;2022-07-23T09:42:22;98888.00;;;30.50
71081;BMP180;58740;50.672;18.690;2022-07-23T09:44:54;98884.00;;;30.50
71081;BMP180;58740;50.672;18.690;2022-07-23T09:47:25;98884.00;;;30.50
71081;BMP180;58740;50.672;18.690;2022-07-23T09:50:08;98878.00;;;30.42
71081;BMP180;58740;50.672;18.690;2022-07-23T09:52:47;98866.60;;;30.40
71081;BMP180;58740;50.672;18.690;2022-07-23T09:55:18;98866.60;;;30.40
71081;BMP180;58740;50.672;18.690;2022-07-23T09:57:47;98858.20;;;30.40
71081;BMP180;58740;50.672;18.690;2022-07-23T10:00:19;98855.60;;;30.40
71081;BMP180;58740;50.672;18.690;2022-07-23T10:02:49;98860.00;;;30.30
71081;BMP180;58740;50.672;18.690;2022-07-23T10:05:17;98857.40;;;30.30
71081;BMP180;58740;50.672;18.690;2022-07-23T10:07:45;98857.40;;;30.30
71081;BMP180;58740;50.672;18.690;2022-07-23T10:10:22;98856.60;;;30.30
71081;BMP180;58740;50.672;18.690;2022-07-23T10:12:51;98856.80;;;30.36
71081;BMP180;58740;50.672;18.690;2022-07-23T10:15:29;98857.40;;;30.38
71081;BMP180;58740;50.672;18.690;2022-07-23T10:17:57;98856.40;;;30.40
71081;BMP180;58740;50.672;18.690;2022-07-23T10:20:25;98848.80;;;30.40
71081;BMP180;58740;50.672;18.690;2022-07-23T10:23:05;98842.20;;;30.40
71081;BMP180;58740;50.672;18.690;2022-07-23T10:32:13;98834.80;;;30.60
71081;BMP180;58740;50.672;18.690;2022-07-23T10:35:09;98833.40;;;30.70
71081;BMP180;58740;50.672;18.690;2022-07-23T10:37:48;98842.00;;;30.80
71081;BMP180;58740;50.672;18.690;2022-07-23T10:40:19;98836.20;;;30.80
71081;BMP180;58740;50.672;18.690;2022-07-23T10:42:51;98841.20;;;30.76
71081;BMP180;58740;50.672;18.690;2022-07-23T10:45:38;98838.60;;;30.76
71081;BMP180;58740;50.672;18.690;2022-07-23T10:48:16;98837.80;;;30.78
71081;BMP180;58740;50.672;18.690;2022-07-23T10:51:15;98835.40;;;30.72
71081;BMP180;58740;50.672;18.690;2022-07-23T10:59:26;98816.20;;;30.90
71081;BMP180;58740;50.672;18.690;2022-07-23T11:02:23;98822.00;;;30.92
71081;BMP180;58740;50.672;18.690;2022-07-23T11:04:52;98817.20;;;31.00
71081;BMP180;58740;50.672;18.690;2022-07-23T11:07:20;98815.60;;;31.00
71081;BMP180;58740;50.672;18.690;2022-07-23T11:09:49;98816.00;;;31.10
71081;BMP180;58740;50.672;18.690;2022-07-23T11:15:09;98813.60;;;31.10
71081;BMP180;58740;50.672;18.690;2022-07-23T11:25:35;98813.00;;;31.20
71081;BMP180;58740;50.672;18.690;2022-07-23T11:28:17;98812.00;;;31.20
71081;BMP180;58740;50.672;18.690;2022-07-23T11:30:48;98811.60;;;31.10
71081;BMP180;58740;50.672;18.690;2022-07-23T11:33:18;98814.60;;;31.10
71081;BMP180;58740;50.672;18.690;2022-07-23T11:36:00;98812.20;;;31.10
71081;BMP180;58740;50.672;18.690;2022-07-23T11:38:31;98810.00;;;31.06
71081;BMP180;58740;50.672;18.690;2022-07-23T11:41:00;98813.60;;;31.00
71081;BMP180;58740;50.672;18.690;2022-07-23T11:43:28;98810.40;;;31.00
71081;BMP180;58740;50.672;18.690;2022-07-23T11:46:00;98808.60;;;31.00
71081;BMP180;58740;50.672;18.690;2022-07-23T11:48:30;98805.80;;;30.98
71081;BMP180;58740;50.672;18.690;2022-07-23T11:51:03;98809.60;;;30.90
71081;BMP180;58740;50.672;18.690;2022-07-23T11:53:33;98803.40;;;30.90
71081;BMP180;58740;50.672;18.690;2022-07-23T11:56:10;98807.60;;;30.90
71081;BMP180;58740;50.672;18.690;2022-07-23T11:58:39;98802.40;;;30.84
71081;BMP180;58740;50.672;18.690;2022-07-23T12:01:21;98802.20;;;30.80
71081;BMP180;58740;50.672;18.690;2022-07-23T12:03:51;98798.40;;;30.80
71081;BMP180;58740;50.672;18.690;2022-07-23T12:06:19;98795.80;;;30.80
71081;BMP180;58740;50.672;18.690;2022-07-23T12:08:47;98799.20;;;30.80
71081;BMP180;58740;50.672;18.690;2022-07-23T12:11:15;98805.80;;;30.80
71081;BMP180;58740;50.672;18.690;2022-07-23T12:13:43;98801.40;;;30.70
71081;BMP180;58740;50.672;18.690;2022-07-23T12:16:10;98794.20;;;30.70
71081;BMP180;58740;50.672;18.690;2022-07-23T12:18:39;98787.80;;;30.60
71081;BMP180;58740;50.672;18.690;2022-07-23T12:21:07;98783.80;;;30.60
71081;BMP180;58740;50.672;18.690;2022-07-23T12:23:36;98780.00;;;30.50
71081;BMP180;58740;50.672;18.690;2022-07-23T12:26:05;98776.60;;;30.50
71081;BMP180;58740;50.672;18.690;2022-07-23T12:28:34;98766.80;;;30.46
71081;BMP180;58740;50.672;18.690;2022-07-23T12:31:05;98762.60;;;30.40
71081;BMP180;58740;50.672;18.690;2022-07-23T12:33:37;98761.80;;;30.40
71081;BMP180;58740;50.672;18.690;2022-07-23T12:36:09;98760.00;;;30.40
71081;BMP180;58740;50.672;18.690;2022-07-23T12:38:43;98763.80;;;30.48
71081;BMP180;58740;50.672;18.690;2022-07-23T12:41:11;98771.40;;;30.50
71081;BMP180;58740;50.672;18.690;2022-07-23T12:43:41;98774.60;;;30.50
71081;BMP180;58740;50.672;18.690;2022-07-23T12:46:20;98774.00;;;30.50
71081;BMP180;58740;50.672;18.690;2022-07-23T12:51:26;98780.00;;;30.40
71081;BMP180;58740;50.672;18.690;2022-07-23T12:54:08;98780.20;;;30.40
71081;BMP180;58740;50.672;18.690;2022-07-23T12:56:44;98780.00;;;30.30
71081;BMP180;58740;50.672;18.690;2022-07-23T12:59:16;98784.80;;;30.30
71081;BMP180;58740;50.672;18.690;2022-07-23T13:01:57;98783.60;;;30.26
71081;BMP180;58740;50.672;18.690;2022-07-23T13:04:29;98781.80;;;30.20
71081;BMP180;58740;50.672;18.690;2022-07-23T13:07:00;98780.40;;;30.10
71081;BMP180;58740;50.672;18.690;2022-07-23T13:09:33;98793.00;;;30.10
71081;BMP180;58740;50.672;18.690;2022-07-23T13:12:09;98806.00;;;30.08
71081;BMP180;58740;50.672;18.690;2022-07-23T13:14:38;98829.60;;;30.00
71081;BMP180;58740;50.672;18.690;2022-07-23T13:17:06;98863.00;;;29.90
71081;BMP180;58740;50.672;18.690;2022-07-23T13:19:34;98901.80;;;29.74
71081;BMP180;58740;50.672;18.690;2022-07-23T13:22:01;98881.00;;;29.28
71081;BMP180;58740;50.672;18.690;2022-07-23T13:24:36;98866.60;;;28.68
71081;BMP180;58740;50.672;18.690;2022-07-23T13:27:06;98900.00;;;28.14
71081;BMP180;58740;50.672;18.690;2022-07-23T13:29:39;98904.00;;;27.68
71081;BMP180;58740;50.672;18.690;2022-07-23T13:32:08;98905.20;;;27.30
71081;BMP180;58740;50.672;18.690;2022-07-23T13:34:37;98923.40;;;27.04
71081;BMP180;58740;50.672;18.690;2022-07-23T13:37:07;98947.40;;;26.80
71081;BMP180;58740;50.672;18.690;2022-07-23T13:39:35;98949.20;;;26.70
71081;BMP180;58740;50.672;18.690;2022-07-23T13:42:06;98954.60;;;26.60
71081;BMP180;58740;50.672;18.690;2022-07-23T13:44:35;98957.20;;;26.44
71081;BMP180;58740;50.672;18.690;2022-07-23T13:47:03;98952.20;;;26.30
71081;BMP180;58740;50.672;18.690;2022-07-23T13:49:31;98957.80;;;26.16
71081;BMP180;58740;50.672;18.690;2022-07-23T13:52:03;98965.40;;;26.00
71081;BMP180;58740;50.672;18.690;2022-07-23T13:54:35;98972.20;;;25.90
71081;BMP180;58740;50.672;18.690;2022-07-23T13:57:03;98992.00;;;25.80
71081;BMP180;58740;50.672;18.690;2022-07-23T13:59:32;98993.60;;;25.70
71081;BMP180;58740;50.672;18.690;2022-07-23T14:02:02;98969.40;;;25.60
71081;BMP180;58740;50.672;18.690;2022-07-23T14:04:52;98957.60;;;25.60
71081;BMP180;58740;50.672;18.690;2022-07-23T14:07:20;98953.60;;;25.60
71081;BMP180;58740;50.672;18.690;2022-07-23T14:09:49;98952.80;;;25.60
71081;BMP180;58740;50.672;18.690;2022-07-23T14:12:16;98953.20;;;25.60
71081;BMP180;58740;50.672;18.690;2022-07-23T14:14:44;98952.80;;;25.60
71081;BMP180;58740;50.672;18.690;2022-07-23T14:17:12;98944.40;;;25.70
71081;BMP180;58740;50.672;18.690;2022-07-23T14:19:40;98930.80;;;25.70
71081;BMP180;58740;50.672;18.690;2022-07-23T14:22:09;98923.20;;;25.80
71081;BMP180;58740;50.672;18.690;2022-07-23T14:24:37;98917.40;;;25.80
71081;BMP180;58740;50.672;18.690;2022-07-23T14:27:05;98913.60;;;25.80
71081;BMP180;58740;50.672;18.690;2022-07-23T14:29:33;98906.40;;;25.80
71081;BMP180;58740;50.672;18.690;2022-07-23T14:32:03;98898.00;;;25.86
71081;BMP180;58740;50.672;18.690;2022-07-23T14:34:31;98887.40;;;25.80
71081;BMP180;58740;50.672;18.690;2022-07-23T14:37:02;98881.40;;;25.80